createdAt,value
2017-10-07T00:00:38.984Z,84.76
2017-10-07T00:06:25.803Z,86.53
2017-10-07T00:12:09.462Z,87.33
2017-10-07T00:17:52.387Z,87.22
2017-10-07T00:23:37.259Z,86.06
2017-10-07T00:29:19.739Z,87.08
2017-10-07T00:35:06.434Z,84.96
2017-10-07T00:40:50.763Z,85.21
2017-10-07T00:46:38.332Z,87.40
2017-10-07T00:52:22.247Z,85.56
2017-10-07T00:58:06.871Z,84.56
2017-10-07T01:03:53.846Z,85.59
2017-10-07T01:09:36.106Z,86.06
2017-10-07T01:15:25.317Z,86.29
2017-10-07T01:21:05.790Z,86.11
2017-10-07T01:26:51.206Z,87.39
2017-10-07T01:32:40.376Z,86.49
2017-10-07T01:38:24.417Z,86.92
2017-10-07T01:44:11.210Z,87.53
2017-10-07T01:49:54.591Z,87.80
2017-10-07T01:55:37.243Z,86.52
2017-10-07T02:01:26.904Z,86.51
2017-10-07T02:07:07.558Z,87.62
2017-10-07T02:12:54.458Z,87.33
2017-10-07T02:18:37.531Z,88.47
2017-10-07T02:24:19.467Z,88.17
2017-10-07T02:30:06.588Z,87.49
2017-10-07T02:35:51.446Z,86.94
2017-10-07T02:41:36.164Z,87.91
2017-10-07T02:47:22.747Z,87.77
2017-10-07T02:53:09.538Z,87.23
2017-10-07T02:58:52.376Z,87.62
2017-10-07T03:04:37.186Z,87.06
2017-10-07T03:10:20.205Z,86.96
2017-10-07T03:16:06.776Z,87.17
2017-10-07T03:21:50.159Z,87.12
2017-10-07T03:27:36.825Z,87.18
2017-10-07T03:33:25.777Z,86.64
2017-10-07T03:39:08.666Z,86.59
2017-10-07T03:44:51.343Z,86.11
2017-10-07T03:50:38.032Z,86.00
2017-10-07T03:56:22.787Z,86.70
2017-10-07T04:02:12.317Z,86.25
2017-10-07T04:07:55.891Z,86.08
2017-10-07T04:13:38.655Z,86.51
2017-10-07T04:19:21.712Z,85.40
2017-10-07T04:25:08.535Z,86.29
2017-10-07T04:30:53.479Z,86.49
2017-10-07T04:36:36.466Z,85.51
2017-10-07T04:42:21.270Z,86.08
2017-10-07T04:48:06.379Z,87.13
2017-10-07T04:53:55.670Z,86.56
2017-10-07T04:59:38.957Z,86.28
2017-10-07T05:05:23.554Z,86.49
2017-10-07T05:11:07.318Z,86.39
2017-10-07T05:16:56.365Z,86.06
2017-10-07T05:22:39.209Z,86.01
2017-10-07T05:28:22.082Z,86.53
2017-10-07T05:34:08.827Z,86.52
2017-10-07T05:39:53.446Z,85.95
2017-10-07T05:45:38.253Z,86.69
2017-10-07T05:51:23.295Z,85.81
2017-10-07T05:57:07.287Z,86.04
2017-10-07T06:02:56.085Z,86.63
2017-10-07T06:08:39.378Z,85.86
2017-10-07T06:14:22.142Z,86.30
2017-10-07T06:20:06.792Z,85.56
2017-10-07T06:25:55.590Z,85.52
2017-10-07T06:31:39.202Z,85.40
2017-10-07T06:37:22.752Z,84.54
2017-10-07T06:43:07.713Z,85.52
2017-10-07T06:48:56.769Z,85.59
2017-10-07T06:54:39.419Z,85.10
2017-10-07T07:00:22.435Z,84.22
2017-10-07T07:06:10.933Z,84.08
2017-10-07T07:11:51.427Z,83.33
2017-10-07T07:17:36.172Z,83.21
2017-10-07T07:23:25.349Z,82.30
2017-10-07T07:29:08.614Z,83.05
2017-10-07T07:34:51.508Z,83.22
2017-10-07T07:40:40.645Z,82.80
2017-10-07T07:46:23.190Z,82.27
2017-10-07T07:52:10.286Z,82.51
2017-10-07T07:57:56.947Z,81.92
2017-10-07T08:03:40.031Z,82.50
2017-10-07T08:09:23.496Z,83.96
2017-10-07T08:15:06.486Z,82.87
2017-10-07T08:20:55.989Z,83.34
2017-10-07T08:26:36.086Z,82.55
2017-10-07T08:32:23.336Z,83.04
2017-10-07T08:38:08.007Z,83.71
2017-10-07T08:43:57.345Z,83.52
2017-10-07T08:49:40.639Z,84.12
2017-10-07T08:55:23.929Z,84.18
2017-10-07T09:01:06.469Z,85.20
2017-10-07T09:06:55.845Z,84.29
2017-10-07T09:12:39.375Z,84.65
2017-10-07T09:18:23.125Z,83.04
2017-10-07T09:24:12.284Z,83.49
2017-10-07T09:29:54.943Z,82.53
2017-10-07T09:35:39.455Z,82.77
2017-10-07T09:41:22.340Z,81.16
2017-10-07T09:47:11.549Z,82.66
2017-10-07T09:52:54.548Z,84.22
2017-10-07T09:58:39.139Z,83.17
2017-10-07T10:04:21.651Z,83.31
2017-10-07T10:10:10.776Z,83.72
2017-10-07T10:15:55.951Z,84.21
2017-10-07T10:21:38.611Z,83.42
2017-10-07T10:27:21.399Z,84.07
2017-10-07T10:33:10.880Z,84.90
2017-10-07T10:38:54.206Z,84.97
2017-10-07T10:44:39.295Z,84.42
2017-10-07T10:50:22.031Z,84.42
2017-10-07T10:56:08.679Z,83.26
2017-10-07T11:01:55.287Z,84.56
2017-10-07T11:07:39.415Z,85.67
2017-10-07T11:13:24.024Z,87.59
2017-10-07T11:19:08.335Z,86.48
2017-10-07T11:24:54.825Z,86.49
2017-10-07T11:30:38.567Z,87.39
2017-10-07T11:36:25.463Z,87.10
2017-10-07T11:42:08.080Z,88.48
2017-10-07T11:47:52.975Z,88.67
2017-10-07T11:53:41.902Z,88.50
2017-10-07T11:59:25.427Z,89.37
2017-10-07T12:05:08.587Z,89.29
2017-10-07T12:10:51.575Z,89.67
2017-10-07T12:16:38.143Z,89.74
2017-10-07T12:22:25.015Z,89.48
2017-10-07T12:28:07.742Z,90.31
2017-10-07T12:33:56.969Z,90.05
2017-10-07T12:39:37.498Z,90.54
2017-10-07T12:45:24.758Z,90.08
2017-10-07T12:51:08.312Z,89.88
2017-10-07T12:56:52.614Z,90.49
2017-10-07T13:02:41.213Z,91.22
2017-10-07T13:08:26.470Z,91.61
2017-10-07T13:14:11.531Z,91.16
2017-10-07T13:19:58.828Z,91.20
2017-10-07T13:25:38.731Z,91.63
2017-10-07T13:31:26.167Z,91.40
2017-10-07T13:37:12.490Z,91.56
2017-10-07T13:42:55.595Z,91.81
2017-10-07T13:48:38.608Z,91.78
2017-10-07T13:54:25.542Z,91.86
2017-10-07T14:00:11.222Z,91.92
2017-10-07T14:05:53.818Z,92.17
2017-10-07T14:11:40.219Z,92.15
2017-10-07T14:17:22.523Z,91.82
2017-10-07T14:23:11.833Z,91.53
2017-10-07T14:28:54.878Z,91.64
2017-10-07T14:34:37.667Z,90.96
2017-10-07T14:40:26.901Z,91.31
2017-10-07T14:46:14.405Z,91.66
2017-10-07T14:51:54.677Z,92.08
2017-10-07T14:57:40.080Z,91.89
2017-10-07T15:03:22.960Z,92.11
2017-10-07T15:09:12.337Z,91.85
2017-10-07T15:14:56.374Z,92.09
2017-10-07T15:20:38.943Z,91.45
2017-10-07T15:26:28.002Z,92.18
2017-10-07T15:32:10.918Z,92.31
2017-10-07T15:37:54.426Z,92.60
2017-10-07T15:43:37.203Z,92.72
2017-10-07T15:49:23.970Z,93.20
2017-10-07T15:55:11.118Z,93.02
2017-10-07T16:00:53.991Z,92.41
2017-10-07T16:06:37.154Z,92.43
2017-10-07T16:12:21.604Z,92.00
2017-10-07T16:18:08.511Z,92.35
2017-10-07T16:23:55.983Z,92.25
2017-10-07T16:29:42.798Z,91.84
2017-10-07T16:35:25.027Z,91.71
2017-10-07T16:41:09.239Z,91.62
2017-10-07T16:46:58.793Z,92.02
2017-10-07T16:52:38.835Z,92.13
2017-10-07T16:58:25.630Z,91.55
2017-10-07T17:04:08.343Z,92.17
2017-10-07T17:09:55.022Z,91.95
2017-10-07T17:15:39.418Z,91.69
2017-10-07T17:21:24.291Z,91.68
2017-10-07T17:27:11.239Z,91.98
2017-10-07T17:32:53.915Z,91.74
2017-10-07T17:38:38.661Z,91.97
2017-10-07T17:44:25.299Z,91.80
2017-10-07T17:50:07.934Z,92.03
2017-10-07T17:55:57.341Z,92.10
2017-10-07T18:01:40.663Z,92.20
2017-10-07T18:07:23.618Z,92.49
2017-10-07T18:13:08.235Z,92.54
2017-10-07T18:18:57.544Z,92.54
2017-10-07T18:24:40.796Z,91.90
2017-10-07T18:30:24.050Z,92.01
2017-10-07T18:36:13.356Z,92.47
2017-10-07T18:41:56.567Z,92.19
2017-10-07T18:47:39.646Z,91.66
2017-10-07T18:53:25.418Z,92.37
2017-10-07T18:59:12.272Z,92.28
2017-10-07T19:04:55.748Z,91.80
2017-10-07T19:10:40.611Z,92.25
2017-10-07T19:16:25.595Z,92.38
2017-10-07T19:22:10.414Z,91.76
2017-10-07T19:27:59.309Z,91.33
2017-10-07T19:33:39.932Z,91.27
2017-10-07T19:39:27.335Z,91.72
2017-10-07T19:45:10.058Z,91.20
2017-10-07T19:50:56.662Z,91.59
2017-10-07T19:56:39.592Z,91.90
2017-10-07T20:02:24.391Z,90.82
2017-10-07T20:08:13.589Z,91.66
2017-10-07T20:14:02.489Z,91.25
2017-10-07T20:19:39.291Z,91.88
2017-10-07T20:25:22.327Z,91.09
2017-10-07T20:31:08.886Z,91.44
2017-10-07T20:36:55.295Z,91.69
2017-10-07T20:42:38.066Z,92.64
2017-10-07T20:48:25.154Z,91.66
2017-10-07T20:54:14.094Z,91.67
2017-10-07T20:59:57.462Z,92.02
2017-10-07T21:05:40.307Z,92.02
2017-10-07T21:11:23.067Z,92.23
2017-10-07T21:17:07.755Z,92.98
2017-10-07T21:22:56.624Z,92.55
2017-10-07T21:28:40.183Z,92.37
2017-10-07T21:34:23.318Z,91.65
2017-10-07T21:40:07.870Z,90.52
2017-10-07T21:45:54.851Z,89.90
2017-10-07T21:51:38.787Z,90.55
2017-10-07T21:57:25.488Z,90.68
2017-10-07T22:03:08.598Z,90.53
2017-10-07T22:08:55.439Z,90.45
2017-10-07T22:14:38.196Z,90.84
2017-10-07T22:20:25.043Z,90.15
2017-10-07T22:26:14.098Z,90.34
2017-10-07T22:31:57.405Z,90.14
2017-10-07T22:37:40.303Z,90.52
2017-10-07T22:43:25.302Z,90.30
2017-10-07T22:49:08.679Z,90.50
2017-10-07T22:54:55.018Z,91.58
2017-10-07T23:00:38.551Z,91.07
2017-10-07T23:06:25.375Z,91.18
2017-10-07T23:12:08.011Z,90.75
2017-10-07T23:17:54.954Z,91.09
2017-10-07T23:23:41.466Z,90.76
2017-10-07T23:29:24.651Z,89.89
2017-10-07T23:35:09.517Z,89.79
2017-10-07T23:40:58.399Z,89.81
2017-10-07T23:46:38.490Z,89.10
2017-10-07T23:52:23.815Z,90.02
2017-10-07T23:58:10.284Z,90.25
